Time;durP1;ratioP1;P1;durP2;ratioP2;P2;SDS_P1;SDS_P2;PMS_P1;PMS_P2;Temp;Humidity;BMP_temperature;BMP_pressure;BME280_temperature;BME280_humidity;BME280_pressure;Samples;Min_cycle;Max_cycle;Signal;HPM_P1;HPM_P2
2023/09/11 03:02:39;;;;;;;;;;;23.30;58.30;;;;;;4969812;28;45053;-84
2023/09/11 03:05:05;;;;;;;;;;;23.30;58.40;;;;;;4969602;28;44857;-83
2023/09/11 03:07:31;;;;;;;;;;;23.30;58.40;;;;;;4958316;28;45178;-84
2023/09/11 03:09:56;;;;;;;;;;;23.40;58.40;;;;;;4944724;28;46220;-82
2023/09/11 03:12:22;;;;;;;;;;;23.30;58.40;;;;;;4971675;28;45472;-82
2023/09/11 03:14:49;;;;;;;;;;;23.30;58.30;;;;;;4957444;28;44797;-82
2023/09/11 03:17:15;;;;;;;;;;;23.40;58.40;;;;;;4953642;28;44997;-81
2023/09/11 03:19:41;;;;;;;;;;;23.40;58.40;;;;;;4941152;28;45420;-80
2023/09/11 03:22:06;;;;;;;;;;;23.40;58.40;;;;;;4937945;28;45495;-80
2023/09/11 03:24:32;;;;;;;;;;;23.30;58.30;;;;;;4928877;28;44773;-81
2023/09/11 03:26:58;;;;;;;;;;;23.40;58.40;;;;;;4989549;28;45317;-79
2023/09/11 03:29:23;;;;;;;;;;;23.30;58.30;;;;;;4960522;28;46419;-81
2023/09/11 03:31:49;;;;;;;;;;;23.40;58.30;;;;;;4957529;28;44954;-82
2023/09/11 03:34:15;;;;;;;;;;;23.30;58.30;;;;;;4972230;28;45374;-81
2023/09/11 03:36:40;;;;;;;;;;;23.30;58.30;;;;;;4943265;28;45191;-80
2023/09/11 03:39:07;;;;;;;;;;;23.30;58.30;;;;;;4964573;28;46450;-81
2023/09/11 03:41:33;;;;;;;;;;;23.30;58.30;;;;;;4951642;28;45230;-81
2023/09/11 03:43:58;;;;;;;;;;;23.30;58.30;;;;;;4943365;28;45214;-80
2023/09/11 03:46:24;;;;;;;;;;;23.40;58.30;;;;;;4957145;28;45704;-79
2023/09/11 03:48:49;;;;;;;;;;;23.30;58.30;;;;;;4966499;28;46079;-80
2023/09/11 03:51:15;;;;;;;;;;;23.30;58.30;;;;;;4960284;28;44840;-82
2023/09/11 03:53:42;;;;;;;;;;;23.40;58.30;;;;;;4958718;28;45481;-79
2023/09/11 03:56:09;;;;;;;;;;;23.30;58.30;;;;;;4958394;28;45462;-85
2023/09/11 03:58:35;;;;;;;;;;;23.30;58.30;;;;;;4965377;28;46230;-81
2023/09/11 04:01:00;;;;;;;;;;;23.30;58.30;;;;;;4959625;28;45338;-80
2023/09/11 04:03:26;;;;;;;;;;;23.30;58.30;;;;;;5010022;28;45090;-81
2023/09/11 04:05:51;;;;;;;;;;;23.30;58.30;;;;;;4978381;28;45656;-79
2023/09/11 04:08:17;;;;;;;;;;;23.30;58.30;;;;;;4985769;28;46627;-80
2023/09/11 04:10:45;;;;;;;;;;;23.30;58.30;;;;;;5018268;28;45087;-81
2023/09/11 04:13:11;;;;;;;;;;;23.30;58.30;;;;;;5020139;28;45539;-81
2023/09/11 04:15:36;;;;;;;;;;;23.30;58.30;;;;;;4972537;28;45280;-80
2023/09/11 04:18:02;;;;;;;;;;;23.30;58.30;;;;;;4990143;28;46505;-81
2023/09/11 04:20:33;;;;;;;;;;;23.30;58.30;;;;;;4975730;28;45378;-84
2023/09/11 04:23:01;;;;;;;;;;;23.30;58.20;;;;;;4981416;28;45325;-80
2023/09/11 04:25:27;;;;;;;;;;;23.30;58.30;;;;;;4962951;28;44887;-83
2023/09/11 04:27:53;;;;;;;;;;;23.30;58.20;;;;;;5001089;28;46376;-81
2023/09/11 04:30:18;;;;;;;;;;;23.30;58.30;;;;;;4961536;28;45061;-86
2023/09/11 04:32:44;;;;;;;;;;;23.30;58.20;;;;;;4982513;28;45217;-80
2023/09/11 04:35:09;;;;;;;;;;;23.30;58.30;;;;;;5000501;28;44713;-82
2023/09/11 04:37:35;;;;;;;;;;;23.30;58.20;;;;;;4992228;28;46534;-81
2023/09/11 04:40:05;;;;;;;;;;;23.30;58.20;;;;;;4984126;28;45138;-81
2023/09/11 04:42:31;;;;;;;;;;;23.30;58.30;;;;;;4966047;28;45292;-80
2023/09/11 04:44:58;;;;;;;;;;;23.30;58.20;;;;;;4981292;28;45523;-81
2023/09/11 04:47:24;;;;;;;;;;;23.30;58.30;;;;;;4990141;28;46393;-80
2023/09/11 04:49:50;;;;;;;;;;;23.30;58.20;;;;;;4969649;28;45168;-79
2023/09/11 04:52:15;;;;;;;;;;;23.30;58.20;;;;;;4976745;28;45687;-83
2023/09/11 04:54:41;;;;;;;;;;;23.30;58.20;;;;;;4983971;28;45108;-79
2023/09/11 04:57:07;;;;;;;;;;;23.30;58.20;;;;;;4980307;28;45028;-80
2023/09/11 04:59:32;;;;;;;;;;;23.30;58.20;;;;;;4978085;28;45447;-81
2023/09/11 05:01:58;;;;;;;;;;;23.30;58.20;;;;;;4993552;28;45769;-80
2023/09/11 05:04:24;;;;;;;;;;;23.30;58.20;;;;;;4993031;28;45701;-81
2023/09/11 05:06:50;;;;;;;;;;;23.30;58.20;;;;;;4979352;28;46980;-82
2023/09/11 05:09:16;;;;;;;;;;;23.30;58.20;;;;;;4985948;28;45252;-80
2023/09/11 05:11:42;;;;;;;;;;;23.30;58.20;;;;;;4982745;28;44939;-80
2023/09/11 05:14:07;;;;;;;;;;;23.30;58.20;;;;;;5017792;28;44749;-80
2023/09/11 05:16:33;;;;;;;;;;;23.30;58.20;;;;;;5012201;28;46091;-80
2023/09/11 05:18:58;;;;;;;;;;;23.30;58.20;;;;;;4995725;28;45458;-80
2023/09/11 05:21:25;;;;;;;;;;;23.30;58.20;;;;;;4991018;28;45609;-79
2023/09/11 05:23:51;;;;;;;;;;;23.30;58.20;;;;;;4972123;28;44900;-80
2023/09/11 05:26:16;;;;;;;;;;;23.30;58.20;;;;;;4978499;28;45501;-85
2023/09/11 05:28:42;;;;;;;;;;;23.30;58.20;;;;;;4962820;28;45371;-80
2023/09/11 05:31:08;;;;;;;;;;;23.30;58.20;;;;;;4971328;28;45710;-80
2023/09/11 05:33:33;;;;;;;;;;;23.30;58.20;;;;;;4983860;28;45587;-81
2023/09/11 05:35:59;;;;;;;;;;;23.30;58.20;;;;;;4993071;28;45768;-81
2023/09/11 05:38:25;;;;;;;;;;;23.30;58.20;;;;;;4985886;28;45562;-81
2023/09/11 05:40:51;;;;;;;;;;;23.30;58.20;;;;;;4977609;28;45242;-82
2023/09/11 05:43:17;;;;;;;;;;;23.30;58.20;;;;;;4978679;28;45414;-81
2023/09/11 05:45:43;;;;;;;;;;;23.30;58.20;;;;;;4987445;28;45520;-80
2023/09/11 05:48:11;;;;;;;;;;;23.30;58.20;;;;;;4980154;28;44795;-80
2023/09/11 05:50:37;;;;;;;;;;;23.30;58.20;;;;;;4962172;28;45510;-79
2023/09/11 05:53:06;;;;;;;;;;;23.30;58.20;;;;;;4980934;28;45120;-81
2023/09/11 05:55:33;;;;;;;;;;;23.30;58.20;;;;;;5017802;28;45954;-79
2023/09/11 05:57:59;;;;;;;;;;;23.30;58.20;;;;;;4988369;28;45360;-82
2023/09/11 06:00:26;;;;;;;;;;;23.30;58.20;;;;;;4960259;28;45180;-85
2023/09/11 06:02:54;;;;;;;;;;;23.30;58.20;;;;;;4978435;28;45518;-79
2023/09/11 06:05:20;;;;;;;;;;;23.30;58.20;;;;;;4977010;28;46166;-80
2023/09/11 06:07:45;;;;;;;;;;;23.30;58.20;;;;;;4964696;28;45519;-83
2023/09/11 06:10:14;;;;;;;;;;;23.20;58.20;;;;;;5012686;28;44708;-81
2023/09/11 06:12:39;;;;;;;;;;;23.30;58.20;;;;;;4984610;28;45458;-79
2023/09/11 06:15:05;;;;;;;;;;;23.30;58.20;;;;;;4998106;28;46442;-87
2023/09/11 06:17:32;;;;;;;;;;;23.30;58.20;;;;;;4996726;28;45587;-80
2023/09/11 06:19:57;;;;;;;;;;;23.30;58.20;;;;;;4978587;28;45244;-80
2023/09/11 06:22:22;;;;;;;;;;;23.30;58.20;;;;;;4964470;28;45151;-83
2023/09/11 06:24:48;;;;;;;;;;;23.30;58.20;;;;;;4971328;28;46368;-79
2023/09/11 06:27:13;;;;;;;;;;;23.30;58.20;;;;;;5005167;28;45430;-80
2023/09/11 06:29:39;;;;;;;;;;;23.30;58.20;;;;;;4977595;28;45465;-82
2023/09/11 06:32:05;;;;;;;;;;;23.20;58.20;;;;;;4993155;28;45600;-80
2023/09/11 06:34:30;;;;;;;;;;;23.30;58.20;;;;;;4961631;28;46499;-82
2023/09/11 06:36:59;;;;;;;;;;;23.20;58.20;;;;;;4952323;28;45930;-81
2023/09/11 06:39:24;;;;;;;;;;;23.30;58.20;;;;;;4988010;28;44713;-86
2023/09/11 06:41:50;;;;;;;;;;;23.30;58.30;;;;;;4993929;28;45544;-82
2023/09/11 06:44:15;;;;;;;;;;;23.20;58.20;;;;;;4996210;28;45437;-82
2023/09/11 06:46:41;;;;;;;;;;;23.30;58.30;;;;;;4987444;28;45044;-81
2023/09/11 06:49:06;;;;;;;;;;;23.20;58.30;;;;;;5016418;28;45340;-83
2023/09/11 06:51:33;;;;;;;;;;;23.20;58.30;;;;;;5009787;28;45397;-81
2023/09/11 06:53:58;;;;;;;;;;;23.20;58.30;;;;;;4962857;28;46299;-82
2023/09/11 06:56:24;;;;;;;;;;;23.20;58.30;;;;;;4953014;28;44813;-82
2023/09/11 06:58:49;;;;;;;;;;;23.30;58.30;;;;;;4961993;28;45484;-81
2023/09/11 07:04:38;;;;;;;;;;;23.20;58.30;;;;;;4989675;28;46449;-81
2023/09/11 07:07:03;;;;;;;;;;;23.20;58.30;;;;;;5013453;28;45471;-79
2023/09/11 07:09:29;;;;;;;;;;;23.20;58.30;;;;;;4992026;28;44917;-83
2023/09/11 07:11:56;;;;;;;;;;;23.20;58.30;;;;;;4963206;28;45036;-79
2023/09/11 07:14:23;;;;;;;;;;;23.20;58.30;;;;;;5015125;28;45328;-80
2023/09/11 07:16:49;;;;;;;;;;;23.20;58.30;;;;;;4962761;28;45454;-79
2023/09/11 07:19:14;;;;;;;;;;;23.20;58.30;;;;;;5015964;28;45292;-80
2023/09/11 07:21:41;;;;;;;;;;;23.30;58.30;;;;;;4967805;28;44899;-82
2023/09/11 07:24:07;;;;;;;;;;;23.20;58.30;;;;;;4984761;28;46024;-80
2023/09/11 07:26:32;;;;;;;;;;;23.20;58.30;;;;;;4975468;28;45233;-79
2023/09/11 07:28:59;;;;;;;;;;;23.20;58.30;;;;;;4961609;28;45420;-79
2023/09/11 07:31:25;;;;;;;;;;;23.20;58.30;;;;;;5006762;28;45333;-80
2023/09/11 07:33:51;;;;;;;;;;;23.30;58.30;;;;;;4980270;28;45376;-79
2023/09/11 07:36:17;;;;;;;;;;;23.20;58.30;;;;;;4974680;28;45606;-79
2023/09/11 07:38:44;;;;;;;;;;;23.20;58.30;;;;;;4981528;28;45577;-79
2023/09/11 07:41:10;;;;;;;;;;;23.20;58.30;;;;;;4981516;28;45064;-80
2023/09/11 07:43:36;;;;;;;;;;;23.30;58.30;;;;;;4982207;28;45746;-81
2023/09/11 07:46:01;;;;;;;;;;;23.20;58.30;;;;;;4961481;28;45337;-79
2023/09/11 07:48:27;;;;;;;;;;;23.30;58.30;;;;;;4980416;28;45319;-80
2023/09/11 07:50:55;;;;;;;;;;;23.30;58.30;;;;;;5010282;28;45669;-81
2023/09/11 07:53:22;;;;;;;;;;;23.20;58.30;;;;;;5000235;28;45580;-82
2023/09/11 07:55:48;;;;;;;;;;;23.20;58.30;;;;;;4979453;28;45316;-80
2023/09/11 07:58:14;;;;;;;;;;;23.20;58.30;;;;;;5000685;28;45585;-79
2023/09/11 08:00:39;;;;;;;;;;;23.30;58.30;;;;;;4976591;28;45377;-84
2023/09/11 08:03:05;;;;;;;;;;;23.30;58.30;;;;;;4977913;28;46941;-79
2023/09/11 08:05:31;;;;;;;;;;;23.30;58.30;;;;;;4960869;28;45508;-79
2023/09/11 08:07:58;;;;;;;;;;;23.30;58.30;;;;;;4987097;28;45413;-81
2023/09/11 08:10:23;;;;;;;;;;;23.20;58.30;;;;;;4969470;28;45424;-79
2023/09/11 08:12:52;;;;;;;;;;;23.30;58.30;;;;;;4983829;28;65768;-79
2023/09/11 08:15:17;;;;;;;;;;;23.30;58.30;;;;;;4961529;28;45031;-80
2023/09/11 08:17:46;;;;;;;;;;;23.30;58.30;;;;;;4998036;28;45503;-81
2023/09/11 08:20:12;;;;;;;;;;;23.30;58.30;;;;;;4975621;28;45187;-81
2023/09/11 08:22:39;;;;;;;;;;;23.30;58.30;;;;;;5011064;28;45639;-82
2023/09/11 08:25:05;;;;;;;;;;;23.30;58.30;;;;;;4984703;28;45604;-87
2023/09/11 08:27:31;;;;;;;;;;;23.30;58.30;;;;;;4980796;28;45471;-83
2023/09/11 08:29:57;;;;;;;;;;;23.30;58.30;;;;;;4992216;28;45792;-79
2023/09/11 08:32:23;;;;;;;;;;;23.30;58.30;;;;;;4964899;28;45326;-79
2023/09/11 08:34:49;;;;;;;;;;;23.30;58.30;;;;;;4997609;28;45633;-81
2023/09/11 08:37:14;;;;;;;;;;;23.30;58.30;;;;;;4981060;28;44652;-80
2023/09/11 08:39:40;;;;;;;;;;;23.30;58.30;;;;;;5017803;28;46084;-80
2023/09/11 08:42:05;;;;;;;;;;;23.30;58.30;;;;;;4983544;28;45648;-80
2023/09/11 08:44:32;;;;;;;;;;;23.30;58.30;;;;;;4979317;28;45274;-79
2023/09/11 08:46:58;;;;;;;;;;;23.30;58.30;;;;;;4976040;22;45219;-47
2023/09/11 08:49:24;;;;;;;;;;;23.30;58.30;;;;;;4981426;28;45412;-46
2023/09/11 08:51:51;;;;;;;;;;;23.30;58.30;;;;;;4965958;28;45224;-44
2023/09/11 08:54:17;;;;;;;;;;;23.30;58.30;;;;;;4974465;28;45358;-47
2023/09/11 08:56:42;;;;;;;;;;;23.30;58.30;;;;;;4964331;28;44953;-46
2023/09/11 08:59:08;;;;;;;;;;;23.30;58.30;;;;;;4978188;28;45338;-45
2023/09/11 09:01:33;;;;;;;;;;;23.30;58.30;;;;;;4952886;28;45762;-45
2023/09/11 09:03:59;;;;;;;;;;;23.30;58.30;;;;;;4969711;28;44997;-45
2023/09/11 09:06:24;;;;;;;;;;;23.30;58.30;;;;;;4965972;28;45430;-45
2023/09/11 09:08:50;;;;;;;;;;;23.30;58.40;;;;;;4975331;28;46275;-45
2023/09/11 09:11:15;;;;;;;;;;;23.30;58.30;;;;;;4968541;28;46346;-45
2023/09/11 09:13:41;;;;;;;;;;;23.30;58.30;;;;;;4976814;28;45208;-46
2023/09/11 09:16:06;;;;;;;;;;;23.30;58.30;;;;;;4934543;28;45223;-45
2023/09/11 09:18:32;;;;;;;;;;;23.30;58.30;;;;;;4980458;28;45347;-45
2023/09/11 09:20:57;;;;;;;;;;;23.30;58.30;;;;;;4967872;28;45173;-45
2023/09/11 09:23:35;;;;;;;;;;;23.30;58.30;;;;;;4963386;28;45498;-45
2023/09/11 09:26:04;;;;;;;;;;;23.30;58.30;;;;;;4943877;28;45455;-44
2023/09/11 09:28:29;;;;;;;;;;;23.30;58.40;;;;;;4974921;28;45291;-45
2023/09/11 09:30:56;;;;;;;;;;;23.30;58.30;;;;;;4951016;28;45208;-45
2023/09/11 09:33:22;;;;;;;;;;;23.30;58.40;;;;;;4958784;28;45533;-45
2023/09/11 09:35:47;;;;;;;;;;;23.30;58.40;;;;;;4960989;28;45539;-45
2023/09/11 09:38:13;;;;;;;;;;;23.30;58.30;;;;;;4980377;28;45228;-46
2023/09/11 09:40:39;;;;;;;;;;;23.40;58.40;;;;;;4968042;28;46203;-47
2023/09/11 09:43:05;;;;;;;;;;;23.40;58.40;;;;;;4975263;28;45215;-45
2023/09/11 09:45:42;;;;;;;;;;;23.30;58.40;;;;;;4958381;28;45385;-44
2023/09/11 09:48:14;;;;;;;;;;;23.30;58.40;;;;;;4977641;28;44990;-46
2023/09/11 09:50:59;;;;;;;;;;;23.40;58.40;;;;;;4948335;28;46189;-45
2023/09/11 09:53:26;;;;;;;;;;;23.40;58.50;;;;;;4975846;28;45385;-46
2023/09/11 09:55:52;;;;;;;;;;;23.40;58.50;;;;;;4965343;28;44757;-44
2023/09/11 09:58:21;;;;;;;;;;;23.40;58.40;;;;;;4968285;28;45435;-46
2023/09/11 10:00:47;;;;;;;;;;;23.40;58.40;;;;;;4969235;28;45454;-44
2023/09/11 10:03:12;;;;;;;;;;;23.30;58.40;;;;;;4967291;28;45145;-46
2023/09/11 10:05:40;;;;;;;;;;;23.40;58.50;;;;;;4963647;28;45290;-46
2023/09/11 10:08:06;;;;;;;;;;;23.40;58.40;;;;;;4972850;28;45106;-45
2023/09/11 10:10:32;;;;;;;;;;;23.40;58.50;;;;;;4971865;28;46008;-45
2023/09/11 10:13:04;;;;;;;;;;;23.40;58.50;;;;;;4975065;28;45085;-45
2023/09/11 10:15:30;;;;;;;;;;;23.40;58.50;;;;;;4956309;28;45864;-44
2023/09/11 10:17:55;;;;;;;;;;;23.40;58.50;;;;;;4957277;28;45594;-46
2023/09/11 10:20:21;;;;;;;;;;;23.40;58.50;;;;;;4957237;28;45888;-47
2023/09/11 10:22:47;;;;;;;;;;;23.40;58.50;;;;;;4971765;28;45364;-45
2023/09/11 10:25:12;;;;;;;;;;;23.40;59.10;;;;;;4972673;28;45406;-46
2023/09/11 10:27:38;;;;;;;;;;;23.40;58.50;;;;;;4990609;28;44797;-46
2023/09/11 10:30:04;;;;;;;;;;;23.40;58.50;;;;;;4969405;28;46278;-51
2023/09/11 10:32:34;;;;;;;;;;;23.40;58.50;;;;;;4946010;28;45385;-45
2023/09/11 10:34:59;;;;;;;;;;;23.40;58.50;;;;;;4974474;28;45098;-45
2023/09/11 10:37:25;;;;;;;;;;;23.40;58.50;;;;;;4966813;28;45259;-46
2023/09/11 10:39:50;;;;;;;;;;;23.40;58.50;;;;;;4944951;28;46047;-45
2023/09/11 10:42:16;;;;;;;;;;;23.50;58.60;;;;;;4964109;28;45200;-45
2023/09/11 10:44:41;;;;;;;;;;;23.40;58.50;;;;;;4955837;28;45784;-45
2023/09/11 10:47:11;;;;;;;;;;;23.50;58.60;;;;;;4958568;28;45707;-45
2023/09/11 10:49:37;;;;;;;;;;;23.50;58.60;;;;;;4974141;28;46078;-45
2023/09/11 10:52:03;;;;;;;;;;;23.40;58.60;;;;;;4961847;28;45346;-45
2023/09/11 10:54:29;;;;;;;;;;;23.50;58.60;;;;;;4979942;28;45118;-45
2023/09/11 10:56:54;;;;;;;;;;;23.50;58.60;;;;;;4959766;28;45215;-46
2023/09/11 10:59:23;;;;;;;;;;;23.50;59.20;;;;;;4973787;28;45403;-47
2023/09/11 11:01:49;;;;;;;;;;;23.50;58.60;;;;;;4946855;28;44749;-46
2023/09/11 11:04:15;;;;;;;;;;;23.50;59.20;;;;;;4970989;28;45118;-46
2023/09/11 11:06:44;;;;;;;;;;;23.40;58.60;;;;;;4965902;28;47091;-45
2023/09/11 11:09:25;;;;;;;;;;;23.50;58.70;;;;;;4972992;28;45259;-46
2023/09/11 11:11:51;;;;;;;;;;;23.50;58.70;;;;;;4957459;28;45149;-46
2023/09/11 11:14:18;;;;;;;;;;;23.50;58.70;;;;;;4977155;28;45615;-45
2023/09/11 11:16:56;;;;;;;;;;;23.50;58.70;;;;;;4955158;28;45368;-45
2023/09/11 11:19:28;;;;;;;;;;;23.50;58.70;;;;;;4973396;28;47379;-45
2023/09/11 11:21:53;;;;;;;;;;;23.50;58.70;;;;;;4952596;28;45300;-46
2023/09/11 11:24:20;;;;;;;;;;;23.50;58.80;;;;;;4975369;28;45292;-45
2023/09/11 11:26:46;;;;;;;;;;;23.50;58.80;;;;;;4964406;28;45225;-45
2023/09/11 11:29:11;;;;;;;;;;;23.50;58.90;;;;;;4971404;28;46007;-45
2023/09/11 11:31:37;;;;;;;;;;;23.50;59.00;;;;;;4950303;28;45706;-46
2023/09/11 11:34:02;;;;;;;;;;;23.50;59.00;;;;;;4934588;28;45044;-45
2023/09/11 11:36:29;;;;;;;;;;;23.50;58.90;;;;;;4966859;28;45293;-46
2023/09/11 11:38:55;;;;;;;;;;;23.50;59.10;;;;;;4988990;28;45985;-46
2023/09/11 11:41:21;;;;;;;;;;;23.50;59.00;;;;;;4966129;28;44735;-46
2023/09/11 11:43:46;;;;;;;;;;;23.50;59.00;;;;;;4976178;28;45442;-45
2023/09/11 11:46:13;;;;;;;;;;;23.50;59.30;;;;;;4954626;28;46013;-48
2023/09/11 11:48:39;;;;;;;;;;;23.50;59.20;;;;;;4964734;28;45984;-47
2023/09/11 11:51:04;;;;;;;;;;;23.50;59.40;;;;;;4961360;28;45124;-48
2023/09/11 11:53:30;;;;;;;;;;;23.50;59.50;;;;;;4972617;28;45679;-46
2023/09/11 11:55:56;;;;;;;;;;;23.50;59.30;;;;;;4943863;28;46617;-51
2023/09/11 11:58:21;;;;;;;;;;;23.50;59.00;;;;;;4981495;28;45172;-45
2023/09/11 12:00:59;;;;;;;;;;;23.50;59.50;;;;;;4953303;28;45251;-46
2023/09/11 12:03:26;;;;;;;;;;;23.50;59.50;;;;;;4965466;28;45017;-47
2023/09/11 12:05:51;;;;;;;;;;;23.50;59.70;;;;;;4967764;28;45843;-48
2023/09/11 12:08:17;;;;;;;;;;;23.50;59.60;;;;;;4973712;28;46045;-47
2023/09/11 12:10:48;;;;;;;;;;;23.50;59.80;;;;;;4965675;28;44644;-48
2023/09/11 12:13:17;;;;;;;;;;;23.50;59.50;;;;;;4965303;28;45595;-49
2023/09/11 12:15:42;;;;;;;;;;;23.50;59.40;;;;;;4954551;28;45670;-47
2023/09/11 12:18:09;;;;;;;;;;;23.60;59.30;;;;;;4965757;28;46559;-46
2023/09/11 12:20:35;;;;;;;;;;;23.50;59.60;;;;;;4968491;28;45121;-45
2023/09/11 12:23:00;;;;;;;;;;;23.50;59.70;;;;;;4968288;28;45305;-44
2023/09/11 12:25:26;;;;;;;;;;;23.50;59.50;;;;;;4967135;28;44875;-48
2023/09/11 12:27:51;;;;;;;;;;;23.50;60.00;;;;;;4972928;28;45895;-46
2023/09/11 12:30:17;;;;;;;;;;;23.50;59.70;;;;;;4963162;28;44950;-46
2023/09/11 12:32:44;;;;;;;;;;;23.50;59.40;;;;;;4963012;28;45973;-47
2023/09/11 12:35:09;;;;;;;;;;;23.50;59.60;;;;;;4961574;28;45266;-47
2023/09/11 12:37:36;;;;;;;;;;;23.50;59.40;;;;;;4964679;28;45925;-48
2023/09/11 12:40:08;;;;;;;;;;;23.60;59.40;;;;;;4988541;28;46096;-49
2023/09/11 12:42:35;;;;;;;;;;;23.60;59.50;;;;;;4970899;28;46484;-46
2023/09/11 12:45:00;;;;;;;;;;;23.50;59.40;;;;;;4968718;28;45523;-47
2023/09/11 12:47:26;;;;;;;;;;;23.50;59.20;;;;;;4955051;28;45895;-48
2023/09/11 12:49:51;;;;;;;;;;;23.60;59.30;;;;;;4957852;28;47840;-46
2023/09/11 12:52:17;;;;;;;;;;;23.60;59.20;;;;;;4961806;28;45163;-47
2023/09/11 12:54:42;;;;;;;;;;;23.60;59.20;;;;;;4976108;28;45031;-48
2023/09/11 12:57:08;;;;;;;;;;;23.50;59.10;;;;;;4969044;28;45518;-46
2023/09/11 12:59:33;;;;;;;;;;;23.60;59.10;;;;;;4979349;28;45726;-47
2023/09/11 13:01:59;;;;;;;;;;;23.60;59.10;;;;;;4951981;28;45987;-50
2023/09/11 13:04:25;;;;;;;;;;;23.60;59.10;;;;;;4976535;28;46435;-47
2023/09/11 13:06:51;;;;;;;;;;;23.60;59.10;;;;;;4964257;28;45487;-48
2023/09/11 13:09:20;;;;;;;;;;;23.60;59.10;;;;;;4986861;28;45193;-47
2023/09/11 13:11:46;;;;;;;;;;;23.60;59.00;;;;;;4972053;28;45117;-47
2023/09/11 13:14:12;;;;;;;;;;;23.50;59.10;;;;;;4976164;28;45268;-48
2023/09/11 13:16:37;;;;;;;;;;;23.60;59.10;;;;;;4958567;28;46144;-46
2023/09/11 13:19:04;;;;;;;;;;;23.60;59.10;;;;;;4984523;28;44846;-49
2023/09/11 13:21:29;;;;;;;;;;;23.60;59.10;;;;;;4969546;28;45352;-48
2023/09/11 13:23:55;;;;;;;;;;;23.60;59.10;;;;;;4974573;28;45430;-47
2023/09/11 13:26:20;;;;;;;;;;;23.60;59.10;;;;;;4960129;28;45253;-47
2023/09/11 13:28:46;;;;;;;;;;;23.60;59.10;;;;;;4981632;28;45289;-48
2023/09/11 13:31:11;;;;;;;;;;;23.60;59.10;;;;;;4960682;28;45337;-48
2023/09/11 13:33:37;;;;;;;;;;;23.60;59.20;;;;;;4970712;28;45207;-48
2023/09/11 13:36:02;;;;;;;;;;;23.60;59.10;;;;;;4966163;28;45212;-47
2023/09/11 13:38:27;;;;;;;;;;;23.60;59.10;;;;;;4970517;28;45274;-46
2023/09/11 13:40:53;;;;;;;;;;;23.60;59.10;;;;;;4962294;28;45154;-48
2023/09/11 13:43:19;;;;;;;;;;;23.60;59.10;;;;;;4953031;28;45459;-47
2023/09/11 13:45:44;;;;;;;;;;;23.60;59.10;;;;;;4961317;28;45904;-46
2023/09/11 13:48:10;;;;;;;;;;;23.60;59.10;;;;;;4972108;28;45692;-48
2023/09/11 13:50:35;;;;;;;;;;;23.60;59.10;;;;;;4966714;28;45284;-46
2023/09/11 13:53:01;;;;;;;;;;;23.60;59.10;;;;;;4970896;28;46256;-48
2023/09/11 13:55:26;;;;;;;;;;;23.60;59.10;;;;;;4965778;28;46013;-49
2023/09/11 13:57:52;;;;;;;;;;;23.60;59.10;;;;;;4977780;28;47061;-47
2023/09/11 14:00:19;;;;;;;;;;;23.60;59.20;;;;;;4965702;28;45102;-48
2023/09/11 14:02:44;;;;;;;;;;;23.60;59.10;;;;;;4965109;28;45395;-48
2023/09/11 14:05:10;;;;;;;;;;;23.60;59.10;;;;;;4966302;28;45489;-47
2023/09/11 14:07:35;;;;;;;;;;;23.60;59.20;;;;;;4968756;28;45260;-46
2023/09/11 14:10:06;;;;;;;;;;;23.60;59.10;;;;;;4974190;28;45146;-47
2023/09/11 14:12:31;;;;;;;;;;;23.60;59.20;;;;;;4966081;28;45722;-47
2023/09/11 14:14:57;;;;;;;;;;;23.60;59.20;;;;;;4973264;28;46215;-47
2023/09/11 14:17:22;;;;;;;;;;;23.60;59.20;;;;;;4955802;28;45244;-46
2023/09/11 14:19:47;;;;;;;;;;;23.60;59.20;;;;;;4975609;28;45417;-49
2023/09/11 14:22:13;;;;;;;;;;;23.60;59.20;;;;;;4965895;28;45161;-48
2023/09/11 14:24:41;;;;;;;;;;;23.60;59.20;;;;;;4970416;28;45325;-48
2023/09/11 14:27:09;;;;;;;;;;;23.60;59.20;;;;;;4967557;28;45196;-46
2023/09/11 14:29:35;;;;;;;;;;;23.60;59.20;;;;;;4979068;28;45260;-46
2023/09/11 14:32:00;;;;;;;;;;;23.60;59.20;;;;;;4950431;28;46249;-49
2023/09/11 14:34:25;;;;;;;;;;;23.60;59.20;;;;;;4967725;28;45111;-47
2023/09/11 14:36:51;;;;;;;;;;;23.60;59.20;;;;;;4946992;28;45331;-45
2023/09/11 14:39:16;;;;;;;;;;;23.70;59.20;;;;;;4960945;28;45618;-45
2023/09/11 14:41:42;;;;;;;;;;;23.60;59.20;;;;;;4965820;28;45735;-45
2023/09/11 14:44:07;;;;;;;;;;;23.60;59.20;;;;;;4954432;28;45334;-44
2023/09/11 14:46:33;;;;;;;;;;;23.60;59.20;;;;;;4954312;28;45378;-48
2023/09/11 14:48:58;;;;;;;;;;;23.70;59.30;;;;;;4967429;28;45272;-45
2023/09/11 14:51:24;;;;;;;;;;;23.70;59.30;;;;;;4963168;28;45513;-51
2023/09/11 14:53:49;;;;;;;;;;;23.60;59.20;;;;;;4972015;28;45287;-47
2023/09/11 14:56:15;;;;;;;;;;;23.60;59.20;;;;;;4963522;28;45186;-48
2023/09/11 14:58:41;;;;;;;;;;;23.60;59.20;;;;;;4972053;28;44766;-47
2023/09/11 15:01:06;;;;;;;;;;;23.60;59.20;;;;;;4948763;28;45218;-47
2023/09/11 15:03:31;;;;;;;;;;;23.70;59.30;;;;;;4967540;28;44870;-47
2023/09/11 15:05:57;;;;;;;;;;;23.60;59.20;;;;;;4964686;28;45146;-52
2023/09/11 15:08:23;;;;;;;;;;;23.70;59.30;;;;;;4965934;28;45305;-48
2023/09/11 15:10:55;;;;;;;;;;;23.60;59.20;;;;;;4964512;28;45295;-47
2023/09/11 15:13:20;;;;;;;;;;;23.60;59.20;;;;;;4968885;28;46207;-48
2023/09/11 15:15:48;;;;;;;;;;;23.60;59.30;;;;;;4954184;28;46109;-49
2023/09/11 15:18:13;;;;;;;;;;;23.60;59.20;;;;;;4966641;28;45414;-45
2023/09/11 15:20:39;;;;;;;;;;;23.70;59.30;;;;;;4963011;28;45867;-48
2023/09/11 15:23:04;;;;;;;;;;;23.70;59.30;;;;;;4973994;28;45932;-45
2023/09/11 15:25:30;;;;;;;;;;;23.70;59.90;;;;;;4956839;28;46160;-46
2023/09/11 15:27:55;;;;;;;;;;;23.60;59.30;;;;;;4952880;28;52220;-46
2023/09/11 15:30:21;;;;;;;;;;;23.60;59.20;;;;;;4948812;28;45069;-47
2023/09/11 15:32:46;;;;;;;;;;;23.70;59.30;;;;;;4964835;28;45334;-46
2023/09/11 15:35:12;;;;;;;;;;;23.60;59.20;;;;;;4968495;28;45696;-46
2023/09/11 15:37:37;;;;;;;;;;;23.70;59.30;;;;;;5037528;22;45889;-82
2023/09/11 15:40:04;;;;;;;;;;;23.70;59.30;;;;;;5017252;28;45012;-85
2023/09/11 15:42:30;;;;;;;;;;;23.70;59.30;;;;;;4987489;28;47022;-82
2023/09/11 15:44:56;;;;;;;;;;;23.70;59.30;;;;;;5003994;28;45236;-82
2023/09/11 15:47:21;;;;;;;;;;;23.70;59.40;;;;;;4976066;28;45803;-84
2023/09/11 15:49:47;;;;;;;;;;;23.70;59.30;;;;;;4978847;28;44973;-82
2023/09/11 15:52:12;;;;;;;;;;;23.70;59.30;;;;;;4999183;28;46723;-84
2023/09/11 15:54:38;;;;;;;;;;;23.70;59.40;;;;;;4989007;28;45282;-82
2023/09/11 15:57:04;;;;;;;;;;;23.70;60.00;;;;;;4998959;28;45711;-82
2023/09/11 15:59:30;;;;;;;;;;;23.70;59.30;;;;;;4987408;28;45484;-82
2023/09/11 16:01:56;;;;;;;;;;;23.70;59.40;;;;;;5012060;28;46446;-82
2023/09/11 16:04:22;;;;;;;;;;;23.70;59.30;;;;;;4984254;28;45057;-84
2023/09/11 16:06:47;;;;;;;;;;;23.70;59.40;;;;;;4981587;28;45146;-82
2023/09/11 16:09:13;;;;;;;;;;;23.70;59.30;;;;;;4971955;28;45104;-82
2023/09/11 16:11:38;;;;;;;;;;;23.70;59.40;;;;;;4994149;28;45256;-82
2023/09/11 16:14:04;;;;;;;;;;;23.70;59.30;;;;;;4973874;28;45261;-83
2023/09/11 16:16:31;;;;;;;;;;;23.70;59.30;;;;;;4980519;28;44678;-82
2023/09/11 16:18:57;;;;;;;;;;;23.70;59.40;;;;;;4961758;28;45392;-82
2023/09/11 16:21:23;;;;;;;;;;;23.70;59.30;;;;;;4989779;28;46548;-88
2023/09/11 16:23:49;;;;;;;;;;;23.70;59.40;;;;;;4975280;28;45366;-82
2023/09/11 16:26:15;;;;;;;;;;;23.70;59.40;;;;;;4993872;28;44980;-83
2023/09/11 16:28:40;;;;;;;;;;;23.70;59.40;;;;;;4992157;28;46144;-84
2023/09/11 16:31:06;;;;;;;;;;;23.70;59.40;;;;;;4985123;28;45442;-83
2023/09/11 16:33:31;;;;;;;;;;;23.70;59.40;;;;;;4985509;28;44710;-82
2023/09/11 16:35:57;;;;;;;;;;;23.70;59.30;;;;;;4984490;28;45227;-82
2023/09/11 16:38:22;;;;;;;;;;;23.70;59.30;;;;;;4970271;28;44901;-82
2023/09/11 16:40:48;;;;;;;;;;;23.70;59.40;;;;;;4978593;28;46412;-82
2023/09/11 16:43:14;;;;;;;;;;;23.70;59.40;;;;;;4998041;28;45362;-83
2023/09/11 16:45:39;;;;;;;;;;;23.70;59.40;;;;;;4980731;28;45219;-82
2023/09/11 16:48:05;;;;;;;;;;;23.70;59.40;;;;;;4995040;28;45552;-86
2023/09/11 16:50:30;;;;;;;;;;;23.70;59.40;;;;;;4976515;28;45984;-82
2023/09/11 16:52:57;;;;;;;;;;;23.70;59.40;;;;;;4996090;28;45408;-82
2023/09/11 16:55:22;;;;;;;;;;;23.80;59.50;;;;;;4995821;28;44750;-86
2023/09/11 16:57:48;;;;;;;;;;;23.70;59.40;;;;;;4996635;28;44755;-82
2023/09/11 17:00:15;;;;;;;;;;;23.70;59.80;;;;;;4982287;28;46405;-83
2023/09/11 17:02:41;;;;;;;;;;;23.70;60.00;;;;;;4994591;28;45503;-82
2023/09/11 17:05:09;;;;;;;;;;;23.70;59.40;;;;;;4982077;28;44647;-88
2023/09/11 17:07:35;;;;;;;;;;;23.70;59.40;;;;;;4998503;28;45246;-82
2023/09/11 17:10:01;;;;;;;;;;;23.70;59.50;;;;;;5007065;28;45925;-82
2023/09/11 17:12:27;;;;;;;;;;;23.70;59.50;;;;;;4979723;28;45612;-85
2023/09/11 17:14:52;;;;;;;;;;;23.70;59.50;;;;;;4994455;28;45655;-85